Terminal Aerodrome Forecast
Issued by NWS

Home | Current Version | Previous Version | Text Only | Print | Product List | Glossary On
Versions: 1 2 3 4 5 6 7 8 9 10 11 12 13 14 15 16 17
000
FTUS44 KCRP 011740
TAFALI
TAF
KALI 011740Z 0118/0218 08008KT P6SM SCT035 BKN050
     FM020200 10008KT 5SM HZ BKN015
     FM020500 06006KT 4SM BR OVC015
      TEMPO 0205/0209 2SM TSRA OVC012CB
     FM020900 02012KT 5SM -SHRA OVC008
     FM021400 01014KT 6SM BR OVC015=

USA.gov is the U.S. government's official web portal to all federal, state and local government web resources and services.